Time;durP1;ratioP1;P1;durP2;ratioP2;P2;SDS_P1;SDS_P2;PMS_P1;PMS_P2;Temp;Humidity;BMP_temperature;BMP_pressure;BME280_temperature;BME280_humidity;BME280_pressure;Samples;Min_cycle;Max_cycle;Signal;HPM_P1;HPM_P2
2024/01/21 00:02:21;;;;;;;16.27;7.85;;;0.30;99.90;;;;;;5018694;28;20052;-62
2024/01/21 00:04:48;;;;;;;12.77;7.25;;;0.30;99.90;;;;;;5036959;28;20317;-63
2024/01/21 00:07:13;;;;;;;15.65;7.18;;;0.30;99.90;;;;;;5028778;28;20053;-63
2024/01/21 00:09:39;;;;;;;13.05;6.70;;;0.30;99.90;;;;;;5030564;28;20033;-62
2024/01/21 00:12:05;;;;;;;13.00;6.55;;;0.30;99.90;;;;;;5031758;28;20044;-63
2024/01/21 00:14:31;;;;;;;17.30;7.72;;;0.30;99.90;;;;;;5032080;28;20105;-64
2024/01/21 00:16:56;;;;;;;13.23;6.80;;;0.40;99.90;;;;;;5040070;28;20159;-62
2024/01/21 00:19:22;;;;;;;14.20;7.50;;;0.40;99.90;;;;;;5033068;28;20046;-62
2024/01/21 00:21:47;;;;;;;14.73;7.22;;;0.50;99.90;;;;;;5016345;28;20045;-62
2024/01/21 00:24:13;;;;;;;11.40;6.55;;;0.40;99.90;;;;;;5025381;28;20124;-62
2024/01/21 00:26:39;;;;;;;13.48;7.65;;;0.40;99.90;;;;;;5017104;28;20049;-63
2024/01/21 00:29:04;;;;;;;15.18;7.00;;;0.40;99.90;;;;;;5038183;28;20171;-63
2024/01/21 00:31:30;;;;;;;15.32;7.45;;;0.40;99.90;;;;;;5030032;28;20049;-63
2024/01/21 00:33:56;;;;;;;13.95;7.35;;;0.40;99.90;;;;;;5037131;28;20049;-64
2024/01/21 00:36:21;;;;;;;17.83;8.48;;;0.30;99.90;;;;;;5026390;28;20156;-63
2024/01/21 00:38:47;;;;;;;13.35;7.20;;;0.20;99.90;;;;;;5027872;28;20438;-63
2024/01/21 00:41:16;;;;;;;13.32;6.75;;;0.20;99.90;;;;;;5027219;28;20176;-64
2024/01/21 00:43:42;;;;;;;13.38;7.78;;;0.20;99.90;;;;;;5029645;28;20065;-63
2024/01/21 00:46:07;;;;;;;16.42;8.05;;;0.10;99.90;;;;;;5034703;28;20068;-62
2024/01/21 00:48:34;;;;;;;12.00;6.45;;;0.10;99.90;;;;;;5027997;28;20108;-63
2024/01/21 00:51:00;;;;;;;15.60;8.15;;;0.20;99.90;;;;;;5028815;28;20145;-63
2024/01/21 00:53:26;;;;;;;14.25;6.40;;;0.20;99.90;;;;;;5032729;28;20044;-62
2024/01/21 00:55:51;;;;;;;12.27;7.55;;;0.30;99.90;;;;;;5014007;28;20121;-64
2024/01/21 00:58:17;;;;;;;13.63;6.82;;;0.20;99.90;;;;;;5030336;28;20069;-63
2024/01/21 01:00:43;;;;;;;14.45;6.75;;;0.30;99.90;;;;;;5030435;28;20072;-62
2024/01/21 01:03:08;;;;;;;12.13;6.18;;;0.30;99.90;;;;;;5029045;28;20068;-63
2024/01/21 01:05:34;;;;;;;13.35;6.20;;;0.30;99.90;;;;;;5036980;28;20041;-63
2024/01/21 01:07:59;;;;;;;14.00;6.05;;;0.40;99.90;;;;;;5034140;28;20033;-64
2024/01/21 01:10:25;;;;;;;11.40;6.10;;;0.40;99.90;;;;;;5040355;28;20053;-64
2024/01/21 01:12:51;;;;;;;10.55;5.22;;;0.40;99.90;;;;;;5031488;28;20033;-63
2024/01/21 01:15:16;;;;;;;11.15;5.57;;;0.40;99.90;;;;;;5032893;28;20120;-65
2024/01/21 01:17:42;;;;;;;11.05;5.45;;;0.40;99.90;;;;;;5038586;28;20099;-62
2024/01/21 01:20:08;;;;;;;14.63;6.65;;;0.40;99.90;;;;;;5041116;28;20148;-63
2024/01/21 01:22:35;;;;;;;9.05;5.15;;;0.40;99.90;;;;;;5044802;28;20048;-64
2024/01/21 01:25:00;;;;;;;9.05;5.00;;;0.40;99.90;;;;;;5039390;28;20065;-63
2024/01/21 01:27:26;;;;;;;13.85;5.93;;;0.40;99.90;;;;;;5030579;28;20084;-63
2024/01/21 01:29:52;;;;;;;10.88;5.30;;;0.50;99.90;;;;;;5042780;28;20468;-63
2024/01/21 01:32:17;;;;;;;11.27;5.70;;;0.50;99.90;;;;;;5045359;28;20084;-63
2024/01/21 01:34:43;;;;;;;9.15;4.72;;;0.50;99.90;;;;;;5019469;28;20370;-63
2024/01/21 01:37:09;;;;;;;12.90;5.18;;;0.60;99.90;;;;;;5027497;28;20108;-63
2024/01/21 01:39:35;;;;;;;10.35;4.63;;;0.60;99.90;;;;;;5027583;28;20064;-63
2024/01/21 01:42:01;;;;;;;9.52;4.10;;;0.60;99.90;;;;;;5027506;28;20041;-63
2024/01/21 01:44:26;;;;;;;9.20;4.22;;;0.50;99.90;;;;;;5031173;28;20037;-65
2024/01/21 01:46:52;;;;;;;10.63;5.45;;;0.50;99.90;;;;;;5042435;28;20091;-63
2024/01/21 01:49:20;;;;;;;10.20;4.60;;;0.60;99.90;;;;;;5031024;28;20077;-63
2024/01/21 01:51:46;;;;;;;7.68;4.10;;;0.60;99.90;;;;;;5036046;28;20099;-63
2024/01/21 01:54:11;;;;;;;7.90;4.05;;;0.60;99.90;;;;;;5037466;28;20458;-63
2024/01/21 01:56:39;;;;;;;9.43;4.40;;;0.60;99.90;;;;;;5043421;28;20030;-62
2024/01/21 01:59:09;;;;;;;7.00;3.83;;;0.60;99.90;;;;;;5040493;28;20076;-64
2024/01/21 02:01:39;;;;;;;7.70;4.07;;;0.60;99.90;;;;;;5037531;28;20069;-65
2024/01/21 02:04:06;;;;;;;10.27;4.10;;;0.70;99.90;;;;;;5034987;28;20037;-63
2024/01/21 02:06:32;;;;;;;9.18;4.25;;;0.70;99.90;;;;;;5029489;28;20055;-63
2024/01/21 02:08:58;;;;;;;8.30;3.75;;;0.80;99.90;;;;;;5028209;28;20544;-62
2024/01/21 02:11:23;;;;;;;7.18;3.22;;;0.80;99.90;;;;;;5009492;28;20044;-64
2024/01/21 02:13:49;;;;;;;5.95;3.05;;;0.70;99.90;;;;;;5025496;28;20424;-64
2024/01/21 02:16:15;;;;;;;7.78;3.60;;;0.80;99.90;;;;;;5038449;28;20178;-64
2024/01/21 02:18:45;;;;;;;6.30;3.22;;;0.90;99.90;;;;;;5034471;28;20366;-64
2024/01/21 02:21:11;;;;;;;7.15;3.17;;;0.90;99.90;;;;;;5030872;28;20068;-62
2024/01/21 02:23:36;;;;;;;7.40;3.83;;;0.90;99.90;;;;;;5028161;28;20677;-63
2024/01/21 02:26:02;;;;;;;6.72;4.38;;;0.80;99.90;;;;;;5031574;28;20079;-63
2024/01/21 02:28:28;;;;;;;5.70;2.85;;;0.90;99.90;;;;;;5026995;28;20064;-62
2024/01/21 02:30:53;;;;;;;5.85;2.92;;;0.90;99.90;;;;;;5038255;28;20146;-62
2024/01/21 02:33:19;;;;;;;5.93;2.90;;;0.90;99.90;;;;;;5037055;28;20048;-62
2024/01/21 02:35:44;;;;;;;5.30;2.95;;;0.80;99.90;;;;;;5031615;28;20044;-62
2024/01/21 02:38:10;;;;;;;6.85;3.05;;;0.90;99.90;;;;;;5032418;28;20066;-63
2024/01/21 02:40:37;;;;;;;5.07;2.72;;;1.00;99.90;;;;;;5031398;28;20040;-62
2024/01/21 02:43:07;;;;;;;5.68;3.20;;;1.00;99.90;;;;;;5035339;28;20090;-62
2024/01/21 02:45:33;;;;;;;4.50;2.70;;;1.00;99.90;;;;;;5042967;28;20342;-63
2024/01/21 02:47:59;;;;;;;5.47;2.42;;;1.10;99.90;;;;;;5031747;28;20037;-62
2024/01/21 02:50:24;;;;;;;7.22;2.83;;;1.10;99.90;;;;;;5037663;28;20103;-63
2024/01/21 02:52:50;;;;;;;7.55;2.67;;;1.10;99.90;;;;;;5030574;28;20124;-63
2024/01/21 02:55:15;;;;;;;3.58;2.40;;;1.20;99.90;;;;;;5031947;28;20039;-63
2024/01/21 02:57:41;;;;;;;6.22;2.28;;;1.10;99.90;;;;;;5027685;28;20537;-62
2024/01/21 03:00:07;;;;;;;3.53;2.15;;;1.30;99.90;;;;;;5028411;28;20041;-64
2024/01/21 03:02:33;;;;;;;5.03;2.25;;;1.20;99.90;;;;;;5029086;28;20470;-63
2024/01/21 03:04:59;;;;;;;5.25;2.40;;;1.40;99.90;;;;;;5031834;28;20052;-65
2024/01/21 03:07:24;;;;;;;3.35;1.92;;;1.40;99.90;;;;;;5027825;28;20056;-63
2024/01/21 03:09:50;;;;;;;5.70;3.00;;;1.50;99.90;;;;;;5017315;28;20389;-63
2024/01/21 03:12:16;;;;;;;2.50;1.80;;;1.50;99.90;;;;;;5040321;28;20071;-62
2024/01/21 03:14:41;;;;;;;5.18;1.90;;;1.60;99.90;;;;;;5033405;28;20060;-64
2024/01/21 03:17:08;;;;;;;3.42;1.88;;;1.60;99.90;;;;;;5032865;28;20366;-64
2024/01/21 03:19:33;;;;;;;5.40;2.08;;;1.60;99.90;;;;;;5038868;28;20083;-63
2024/01/21 03:21:59;;;;;;;3.83;1.83;;;1.50;99.90;;;;;;5049558;28;20084;-64
2024/01/21 03:24:25;;;;;;;5.03;2.05;;;1.50;99.90;;;;;;5033474;28;20041;-63
2024/01/21 03:26:50;;;;;;;4.22;2.08;;;1.60;99.90;;;;;;5036595;28;20124;-63
2024/01/21 03:29:16;;;;;;;3.05;1.90;;;1.50;99.90;;;;;;5046216;28;20045;-63
2024/01/21 03:31:42;;;;;;;3.35;1.80;;;1.50;99.90;;;;;;5045018;28;20098;-64
2024/01/21 03:34:07;;;;;;;5.72;2.03;;;1.50;99.90;;;;;;5043539;28;20039;-64
2024/01/21 03:36:33;;;;;;;4.68;2.20;;;1.50;99.90;;;;;;5036325;28;20045;-64
2024/01/21 03:38:59;;;;;;;4.40;2.20;;;1.40;99.90;;;;;;5041755;28;20346;-62
2024/01/21 03:41:24;;;;;;;3.75;1.90;;;1.40;99.90;;;;;;5032784;28;20112;-65
2024/01/21 03:43:50;;;;;;;3.15;1.90;;;1.40;99.90;;;;;;5031807;28;20041;-63
2024/01/21 03:46:16;;;;;;;4.45;2.10;;;1.40;99.90;;;;;;5040656;28;20393;-62
2024/01/21 03:48:42;;;;;;;3.53;1.70;;;1.50;99.90;;;;;;5047690;28;20558;-64
2024/01/21 03:51:11;;;;;;;2.88;1.80;;;1.60;99.90;;;;;;5038674;28;20113;-63
2024/01/21 03:53:39;;;;;;;2.72;1.70;;;1.60;99.90;;;;;;5052683;28;20041;-64
2024/01/21 03:56:06;;;;;;;3.15;1.52;;;1.80;99.90;;;;;;5035848;28;20042;-62
2024/01/21 03:58:31;;;;;;;3.53;1.92;;;1.80;99.90;;;;;;5046176;28;20075;-63
2024/01/21 04:00:57;;;;;;;3.22;1.92;;;1.70;99.90;;;;;;5034689;28;20382;-64
2024/01/21 04:03:23;;;;;;;4.03;2.15;;;1.70;99.90;;;;;;5032779;28;20168;-64
2024/01/21 04:05:48;;;;;;;3.38;1.75;;;1.70;99.90;;;;;;5042396;28;20414;-63
2024/01/21 04:08:14;;;;;;;3.53;1.85;;;1.60;99.90;;;;;;5035833;28;20040;-64
2024/01/21 04:10:40;;;;;;;3.13;1.67;;;1.50;99.90;;;;;;5036007;28;20354;-66
2024/01/21 04:13:06;;;;;;;2.05;1.50;;;1.60;99.90;;;;;;5028586;28;20366;-63
2024/01/21 04:15:31;;;;;;;2.78;1.42;;;1.60;99.90;;;;;;5028237;28;20096;-65
2024/01/21 04:17:57;;;;;;;3.25;1.77;;;1.70;99.90;;;;;;5029882;28;20514;-63
2024/01/21 04:20:22;;;;;;;2.45;1.48;;;1.70;99.90;;;;;;5031856;28;20038;-62
2024/01/21 04:22:48;;;;;;;4.55;1.80;;;1.70;99.90;;;;;;5045143;28;20524;-63
2024/01/21 04:25:14;;;;;;;4.20;1.60;;;1.60;99.90;;;;;;5039650;28;20127;-64
2024/01/21 04:27:39;;;;;;;3.60;1.63;;;1.60;99.90;;;;;;5031014;28;20038;-63
2024/01/21 04:30:05;;;;;;;3.22;1.75;;;1.60;99.90;;;;;;5029938;28;20068;-64
2024/01/21 04:32:31;;;;;;;2.28;1.40;;;1.60;99.90;;;;;;5038325;28;20516;-63
2024/01/21 04:34:57;;;;;;;4.30;1.92;;;1.70;99.90;;;;;;5030291;28;20057;-65
2024/01/21 04:37:23;;;;;;;4.03;2.33;;;1.60;99.90;;;;;;5031475;28;20412;-64
2024/01/21 04:39:49;;;;;;;2.47;1.63;;;1.70;99.90;;;;;;5040339;28;20127;-63
2024/01/21 04:42:14;;;;;;;5.13;1.95;;;1.70;99.90;;;;;;5038819;28;20049;-65
2024/01/21 04:44:40;;;;;;;2.63;1.30;;;1.70;99.90;;;;;;5028166;28;20366;-62
2024/01/21 04:47:05;;;;;;;2.67;1.63;;;1.60;99.90;;;;;;5033955;28;20041;-64
2024/01/21 04:49:31;;;;;;;2.55;1.58;;;1.60;99.90;;;;;;5033682;28;20037;-63
2024/01/21 04:51:57;;;;;;;1.95;1.27;;;1.70;99.90;;;;;;5033987;28;20038;-64
2024/01/21 04:54:22;;;;;;;3.30;1.90;;;1.60;99.90;;;;;;5043093;28;20390;-62
2024/01/21 04:56:48;;;;;;;2.13;1.42;;;1.50;99.90;;;;;;5035656;28;20049;-62
2024/01/21 04:59:13;;;;;;;2.45;1.52;;;1.40;99.90;;;;;;5035109;28;20389;-62
2024/01/21 05:01:40;;;;;;;3.03;1.20;;;1.50;99.90;;;;;;5037672;28;20047;-63
2024/01/21 05:04:06;;;;;;;2.30;1.55;;;1.50;99.90;;;;;;5038852;28;20064;-62
2024/01/21 05:06:31;;;;;;;1.65;1.30;;;1.50;99.90;;;;;;5035572;28;20126;-64
2024/01/21 05:08:57;;;;;;;3.15;1.25;;;1.70;99.90;;;;;;5040861;28;20110;-62
2024/01/21 05:11:23;;;;;;;3.25;1.50;;;1.70;99.90;;;;;;5032822;28;20052;-64
2024/01/21 05:13:49;;;;;;;3.95;1.77;;;1.60;99.90;;;;;;5027441;28;20111;-63
2024/01/21 05:16:14;;;;;;;2.22;1.52;;;1.70;99.90;;;;;;5032111;28;20041;-65
2024/01/21 05:18:40;;;;;;;2.70;1.17;;;1.70;99.90;;;;;;5035852;28;20033;-64
2024/01/21 05:21:06;;;;;;;4.20;1.42;;;1.60;99.90;;;;;;5045153;28;20407;-66
2024/01/21 05:23:35;;;;;;;2.65;1.33;;;1.60;99.90;;;;;;5047162;28;20037;-62
2024/01/21 05:26:00;;;;;;;4.00;2.35;;;1.70;99.90;;;;;;5040682;28;20515;-64
2024/01/21 05:28:26;;;;;;;2.92;1.70;;;1.70;99.90;;;;;;5040323;28;20045;-63
2024/01/21 05:30:51;;;;;;;3.00;1.60;;;1.60;99.90;;;;;;5035110;28;20559;-63
2024/01/21 05:33:17;;;;;;;3.38;1.55;;;1.60;99.90;;;;;;5048783;28;20106;-64
2024/01/21 05:35:43;;;;;;;2.15;1.50;;;1.60;99.90;;;;;;5036260;28;20040;-64
2024/01/21 05:38:08;;;;;;;2.83;1.52;;;1.70;99.90;;;;;;5035913;28;20098;-64
2024/01/21 05:40:35;;;;;;;3.97;1.58;;;1.60;99.90;;;;;;5033034;28;20076;-63
2024/01/21 05:43:01;;;;;;;2.30;1.48;;;1.70;99.90;;;;;;5030038;28;20030;-63
2024/01/21 05:45:27;;;;;;;3.13;1.55;;;1.80;99.90;;;;;;5023396;28;20064;-64
2024/01/21 05:47:53;;;;;;;2.72;1.52;;;1.80;99.90;;;;;;5036090;28;20037;-63
2024/01/21 05:50:19;;;;;;;2.67;1.50;;;1.80;99.90;;;;;;5047657;28;20047;-64
2024/01/21 05:52:44;;;;;;;2.83;1.75;;;1.80;99.90;;;;;;5040114;28;20212;-64
2024/01/21 05:55:10;;;;;;;3.30;1.60;;;1.80;99.90;;;;;;5030556;28;20453;-65
2024/01/21 05:57:35;;;;;;;2.58;1.70;;;1.80;99.90;;;;;;5043891;28;20037;-64
2024/01/21 06:00:02;;;;;;;3.35;2.05;;;2.00;99.90;;;;;;5043084;28;20045;-65
2024/01/21 06:02:27;;;;;;;2.85;1.85;;;2.10;99.90;;;;;;5041302;28;20063;-64
2024/01/21 06:04:53;;;;;;;3.45;1.73;;;2.10;99.90;;;;;;5044897;28;20116;-63
2024/01/21 06:07:19;;;;;;;4.03;2.08;;;2.10;99.90;;;;;;5042815;28;20041;-65
2024/01/21 06:09:46;;;;;;;4.88;2.55;;;2.20;99.90;;;;;;5032825;28;20041;-64
2024/01/21 06:12:11;;;;;;;4.75;2.70;;;2.30;99.90;;;;;;5027069;28;20124;-64
2024/01/21 06:14:37;;;;;;;3.13;2.30;;;2.20;99.90;;;;;;5021656;28;20831;-62
2024/01/21 06:17:03;;;;;;;4.45;2.50;;;2.20;99.90;;;;;;5030258;28;20052;-64
2024/01/21 06:19:28;;;;;;;5.63;2.42;;;2.30;99.90;;;;;;5036185;28;20041;-62
2024/01/21 06:21:54;;;;;;;6.18;2.45;;;2.30;99.90;;;;;;5016201;28;20032;-66
2024/01/21 06:24:20;;;;;;;5.65;2.47;;;2.30;99.90;;;;;;5038987;28;20168;-64
2024/01/21 06:26:45;;;;;;;5.28;2.47;;;2.30;99.90;;;;;;5024031;28;20045;-64
2024/01/21 06:29:12;;;;;;;6.75;2.58;;;2.30;99.90;;;;;;5029359;28;20040;-64
2024/01/21 06:31:38;;;;;;;7.15;2.78;;;2.30;99.90;;;;;;5023781;28;20065;-65
2024/01/21 06:34:03;;;;;;;4.50;2.45;;;2.30;99.90;;;;;;5016836;28;20048;-65
2024/01/21 06:36:29;;;;;;;5.43;2.47;;;2.20;99.90;;;;;;5028231;28;20044;-65
2024/01/21 06:38:54;;;;;;;5.22;2.70;;;2.20;99.90;;;;;;5027434;28;20481;-65
2024/01/21 06:41:20;;;;;;;10.95;2.70;;;2.20;99.90;;;;;;5030968;28;20156;-65
2024/01/21 06:43:46;;;;;;;4.38;2.67;;;2.20;99.90;;;;;;5031925;28;20809;-66
2024/01/21 06:46:12;;;;;;;6.13;3.08;;;2.20;99.90;;;;;;5032202;28;20033;-63
2024/01/21 06:48:38;;;;;;;6.60;3.42;;;2.20;99.90;;;;;;5016852;28;20037;-64
2024/01/21 06:51:10;;;;;;;4.90;2.92;;;2.10;99.90;;;;;;5046924;28;20477;-64
2024/01/21 06:53:36;;;;;;;5.18;2.88;;;2.20;99.90;;;;;;5039161;28;20059;-65
2024/01/21 06:56:06;;;;;;;6.72;3.15;;;2.10;99.90;;;;;;5036234;28;20043;-64
2024/01/21 06:58:35;;;;;;;7.07;3.17;;;2.10;99.90;;;;;;5042551;28;20155;-65
2024/01/21 07:01:01;;;;;;;5.72;3.05;;;2.10;99.90;;;;;;5034823;28;20427;-64
2024/01/21 07:03:28;;;;;;;9.40;3.55;;;2.10;99.90;;;;;;5033155;28;20045;-65
2024/01/21 07:05:53;;;;;;;6.38;3.08;;;2.10;99.90;;;;;;5034973;28;20045;-64
2024/01/21 07:08:19;;;;;;;7.30;3.22;;;2.10;99.90;;;;;;5044013;28;20044;-64
2024/01/21 07:10:45;;;;;;;6.80;3.70;;;2.10;99.90;;;;;;5039343;28;20067;-64
2024/01/21 07:13:11;;;;;;;5.50;3.78;;;2.00;99.90;;;;;;5038795;28;20047;-64
2024/01/21 07:15:37;;;;;;;6.20;3.35;;;2.00;99.90;;;;;;5035162;28;20752;-63
2024/01/21 07:18:03;;;;;;;6.82;4.00;;;2.00;99.90;;;;;;5034864;28;20047;-62
2024/01/21 07:20:29;;;;;;;7.18;3.42;;;2.00;99.90;;;;;;5040374;28;20041;-65
2024/01/21 07:22:55;;;;;;;6.43;3.33;;;2.00;99.90;;;;;;5036150;28;20059;-63
2024/01/21 07:25:22;;;;;;;6.20;4.35;;;2.10;99.90;;;;;;5015253;28;20075;-64
2024/01/21 07:27:48;;;;;;;7.53;3.72;;;2.10;99.90;;;;;;5030888;28;20064;-65
2024/01/21 07:30:14;;;;;;;6.95;3.70;;;2.00;99.90;;;;;;5037658;28;20403;-64
2024/01/21 07:32:40;;;;;;;7.40;4.03;;;2.10;99.90;;;;;;5039248;28;20345;-64
2024/01/21 07:35:08;;;;;;;8.45;4.38;;;2.00;99.90;;;;;;5047245;28;20134;-65
2024/01/21 07:37:35;;;;;;;7.95;4.07;;;2.00;99.90;;;;;;5035429;28;20043;-65
2024/01/21 07:40:02;;;;;;;6.05;3.53;;;2.00;99.90;;;;;;5031113;28;20120;-65
2024/01/21 07:42:28;;;;;;;5.97;3.70;;;1.90;99.90;;;;;;5037100;28;20049;-67
2024/01/21 07:44:53;;;;;;;7.78;4.57;;;1.90;99.90;;;;;;5031259;28;20423;-64
2024/01/21 07:47:19;;;;;;;7.13;4.20;;;1.90;99.90;;;;;;5022212;28;20468;-64
2024/01/21 07:49:46;;;;;;;7.78;4.15;;;1.90;99.90;;;;;;5043698;28;20061;-65
2024/01/21 07:52:12;;;;;;;8.10;4.72;;;1.90;99.90;;;;;;5046603;28;20048;-64
2024/01/21 07:54:38;;;;;;;8.02;4.05;;;1.90;99.90;;;;;;5040662;28;20049;-65
2024/01/21 07:57:03;;;;;;;7.90;4.00;;;1.90;99.90;;;;;;5030407;28;20079;-63
2024/01/21 07:59:29;;;;;;;8.48;4.35;;;1.90;99.90;;;;;;5018393;28;20076;-63
2024/01/21 08:01:54;;;;;;;12.88;4.40;;;1.80;99.90;;;;;;5034951;28;20041;-64
2024/01/21 08:04:20;;;;;;;7.40;4.80;;;1.80;99.90;;;;;;5032730;28;20496;-63
2024/01/21 08:06:46;;;;;;;9.60;4.50;;;1.80;99.90;;;;;;5031931;28;20041;-64
2024/01/21 08:09:11;;;;;;;7.43;4.03;;;1.80;99.90;;;;;;5031669;28;20045;-65
2024/01/21 08:11:37;;;;;;;9.93;4.60;;;1.90;99.90;;;;;;5031339;28;20052;-64
2024/01/21 08:14:02;;;;;;;8.13;4.70;;;1.90;99.90;;;;;;5033270;28;20145;-66
2024/01/21 08:16:28;;;;;;;7.15;4.05;;;1.90;99.90;;;;;;5031103;28;20192;-63
2024/01/21 08:18:54;;;;;;;9.73;4.80;;;1.90;99.90;;;;;;5031863;28;20038;-66
2024/01/21 08:21:19;;;;;;;8.73;4.57;;;2.00;99.90;;;;;;5017007;28;20041;-66
2024/01/21 08:23:45;;;;;;;8.35;4.82;;;2.00;99.90;;;;;;5028335;28;20044;-66
2024/01/21 08:26:10;;;;;;;9.48;4.03;;;2.00;99.90;;;;;;5029325;28;20117;-64
2024/01/21 08:28:37;;;;;;;9.70;4.68;;;2.00;99.90;;;;;;5030517;28;20041;-65
2024/01/21 08:31:03;;;;;;;8.77;4.53;;;2.00;99.90;;;;;;5042574;28;20409;-68
2024/01/21 08:33:29;;;;;;;8.82;4.80;;;2.00;99.90;;;;;;5046077;28;20044;-66
2024/01/21 08:35:54;;;;;;;10.43;5.65;;;2.00;99.90;;;;;;5026929;28;20104;-66
2024/01/21 08:38:20;;;;;;;8.95;4.68;;;2.10;99.90;;;;;;5037092;28;20047;-64
2024/01/21 08:40:46;;;;;;;13.00;5.88;;;2.10;99.90;;;;;;5021622;28;20037;-64
2024/01/21 08:43:11;;;;;;;10.00;5.47;;;2.20;99.90;;;;;;5030480;28;20174;-64
2024/01/21 08:45:37;;;;;;;10.27;4.47;;;2.20;99.90;;;;;;5042825;28;20041;-64
2024/01/21 08:48:03;;;;;;;11.45;5.03;;;2.20;99.90;;;;;;5031282;28;20049;-68
2024/01/21 08:50:29;;;;;;;8.30;4.30;;;2.20;99.90;;;;;;5036211;28;20041;-64
2024/01/21 08:52:54;;;;;;;8.63;4.00;;;2.20;99.90;;;;;;5041682;28;20096;-65
2024/01/21 08:55:20;;;;;;;12.23;5.10;;;2.20;99.90;;;;;;5037168;28;20116;-64
2024/01/21 08:57:46;;;;;;;8.52;4.47;;;2.20;99.90;;;;;;5029039;28;20038;-63
2024/01/21 09:00:13;;;;;;;8.65;4.60;;;2.10;99.90;;;;;;5030862;28;20046;-65
2024/01/21 09:02:39;;;;;;;9.88;4.55;;;2.10;99.90;;;;;;5029020;28;20056;-65
2024/01/21 09:05:05;;;;;;;6.97;4.28;;;2.10;99.90;;;;;;5038894;28;20029;-64
2024/01/21 09:07:31;;;;;;;8.63;5.30;;;2.20;99.90;;;;;;5036849;28;20045;-65
2024/01/21 09:09:56;;;;;;;11.43;5.35;;;2.20;99.90;;;;;;5027993;28;20037;-65
2024/01/21 09:12:22;;;;;;;9.02;4.78;;;2.20;99.90;;;;;;5034290;28;20072;-65
2024/01/21 09:14:48;;;;;;;7.80;4.78;;;2.30;99.90;;;;;;5033692;28;20496;-66
2024/01/21 09:17:13;;;;;;;9.52;4.68;;;2.30;99.90;;;;;;5027311;28;20036;-64
2024/01/21 09:19:39;;;;;;;8.63;5.07;;;2.30;99.90;;;;;;5049871;28;20037;-63
2024/01/21 09:22:05;;;;;;;14.25;4.75;;;2.30;99.90;;;;;;5049756;28;20037;-64
2024/01/21 09:24:31;;;;;;;8.63;4.03;;;2.40;99.90;;;;;;5039063;28;20048;-63
2024/01/21 09:26:56;;;;;;;9.57;4.53;;;2.40;99.90;;;;;;5034498;28;20048;-64
2024/01/21 09:29:22;;;;;;;7.30;4.28;;;2.50;99.90;;;;;;5030376;28;20056;-64
2024/01/21 09:31:58;;;;;;;11.95;5.70;;;2.50;99.90;;;;;;5087093;27;20398;-63
2024/01/21 09:34:24;;;;;;;9.00;5.40;;;2.50;99.90;;;;;;5066570;28;20041;-61
2024/01/21 09:36:53;;;;;;;10.88;5.20;;;2.50;99.90;;;;;;5065047;28;20046;-61
2024/01/21 09:39:19;;;;;;;8.30;4.30;;;2.60;99.90;;;;;;5060394;28;20071;-62
2024/01/21 09:41:49;;;;;;;7.65;4.78;;;2.60;99.90;;;;;;5052661;28;20064;-63
2024/01/21 09:44:18;;;;;;;;;;;2.60;99.90;;;;;;5052359;28;20118;-61
2024/01/21 09:46:49;;;;;;;8.30;4.85;;;2.60;99.90;;;;;;5047920;28;19932;-62
2024/01/21 09:49:15;;;;;;;9.70;5.15;;;2.60;99.90;;;;;;5063440;28;20036;-63
2024/01/21 09:51:42;;;;;;;8.30;4.93;;;2.70;99.90;;;;;;5058021;28;20377;-61
2024/01/21 09:54:08;;;;;;;9.25;4.38;;;2.70;99.90;;;;;;5064410;28;20041;-61
2024/01/21 09:56:34;;;;;;;9.75;4.97;;;2.70;99.90;;;;;;5048699;28;20037;-63
2024/01/21 09:59:03;;;;;;;7.75;4.88;;;2.70;99.90;;;;;;5058079;28;20457;-62
2024/01/21 10:01:30;;;;;;;9.85;5.07;;;2.80;99.90;;;;;;5050944;28;20060;-60
2024/01/21 10:03:56;;;;;;;10.02;5.45;;;2.80;99.90;;;;;;5061013;28;20033;-61
2024/01/21 10:06:22;;;;;;;9.80;4.75;;;2.80;99.90;;;;;;5065744;28;20078;-64
2024/01/21 10:08:49;;;;;;;8.07;4.80;;;2.80;99.90;;;;;;5066149;28;20511;-61
2024/01/21 10:11:15;;;;;;;10.13;6.57;;;2.80;99.90;;;;;;5051336;28;20049;-62
2024/01/21 10:13:42;;;;;;;9.50;4.50;;;2.80;99.90;;;;;;5044056;28;20033;-62
2024/01/21 10:16:09;;;;;;;7.80;4.57;;;2.80;99.90;;;;;;5047051;28;20056;-62
2024/01/21 10:18:35;;;;;;;7.10;4.38;;;2.90;99.90;;;;;;5045696;28;20075;-62
2024/01/21 10:21:05;;;;;;;9.77;5.00;;;2.90;99.90;;;;;;5045147;28;20444;-61
2024/01/21 10:23:32;;;;;;;8.35;4.57;;;3.00;99.90;;;;;;5046943;28;20384;-63
2024/01/21 10:25:58;;;;;;;10.38;4.95;;;3.10;99.90;;;;;;5049670;28;20453;-60
2024/01/21 10:28:24;;;;;;;15.10;7.70;;;3.10;99.90;;;;;;5064369;28;20089;-62
2024/01/21 10:30:49;;;;;;;10.00;5.05;;;3.20;99.90;;;;;;5063741;28;20084;-62
2024/01/21 10:33:15;;;;;;;20.08;11.27;;;3.20;99.90;;;;;;5061599;28;20094;-60
2024/01/21 10:35:42;;;;;;;10.93;5.70;;;3.30;99.90;;;;;;5061793;28;20496;-64
2024/01/21 10:38:11;;;;;;;11.40;6.85;;;3.20;99.90;;;;;;5061583;28;20108;-61
2024/01/21 10:40:44;;;;;;;16.30;8.63;;;3.20;99.90;;;;;;5063806;28;20135;-61
2024/01/21 10:43:16;;;;;;;17.08;10.77;;;3.20;99.90;;;;;;5049531;28;20045;-60
2024/01/21 10:45:46;;;;;;;9.95;6.47;;;3.20;99.90;;;;;;5032045;28;20212;-62
2024/01/21 10:48:13;;;;;;;;;;;3.20;99.90;;;;;;5050380;28;20064;-60
2024/01/21 10:50:43;;;;;;;8.63;4.90;;;3.20;99.90;;;;;;5051844;28;20335;-62
2024/01/21 10:53:12;;;;;;;9.75;5.15;;;3.20;99.90;;;;;;5049711;28;20106;-62
2024/01/21 10:55:41;;;;;;;8.85;4.85;;;3.30;99.90;;;;;;5034784;28;20084;-62
2024/01/21 10:58:08;;;;;;;9.85;4.97;;;3.30;99.90;;;;;;5042826;28;20473;-63
2024/01/21 11:00:40;;;;;;;10.57;5.13;;;3.40;99.90;;;;;;5048134;28;20044;-62
2024/01/21 11:03:27;;;;;;;10.82;5.10;;;3.40;99.90;;;;;;5048770;28;20400;-62
2024/01/21 11:06:01;;;;;;;8.15;4.95;;;3.30;99.90;;;;;;5047827;28;20103;-60
2024/01/21 11:08:27;;;;;;;10.25;5.63;;;3.30;99.90;;;;;;5049210;28;20041;-60
2024/01/21 11:11:11;;;;;;;10.73;5.45;;;3.30;99.90;;;;;;5046179;28;20039;-62
2024/01/21 11:13:41;;;;;;;8.73;5.15;;;3.30;99.90;;;;;;5047736;28;20829;-61
2024/01/21 11:16:33;;;;;;;9.80;5.60;;;3.20;99.90;;;;;;5051917;28;20381;-59
2024/01/21 11:19:08;;;;;;;8.15;5.10;;;3.30;99.90;;;;;;5033544;28;20040;-62
2024/01/21 11:21:40;;;;;;;9.25;5.00;;;3.30;99.90;;;;;;5049612;28;20082;-62
2024/01/21 11:24:08;;;;;;;11.57;5.57;;;3.30;99.90;;;;;;5030830;28;20062;-62
2024/01/21 11:26:41;;;;;;;8.98;4.80;;;3.40;99.90;;;;;;5048315;28;20465;-62
2024/01/21 11:29:39;;;;;;;9.68;5.40;;;3.50;99.90;;;;;;5028516;28;20113;-62
2024/01/21 11:32:08;;;;;;;10.48;4.80;;;3.50;99.90;;;;;;5043483;28;20062;-62
2024/01/21 11:34:38;;;;;;;11.98;5.35;;;3.50;99.90;;;;;;5050840;28;20043;-61
2024/01/21 11:37:09;;;;;;;10.15;5.70;;;3.60;99.90;;;;;;5043214;28;20094;-61
2024/01/21 11:39:36;;;;;;;9.85;5.00;;;3.60;99.90;;;;;;5041032;28;20037;-62
2024/01/21 11:42:03;;;;;;;12.68;6.13;;;3.60;99.90;;;;;;5043903;28;20049;-65
2024/01/21 11:44:30;;;;;;;7.13;4.57;;;3.60;99.90;;;;;;5046667;28;20503;-63
2024/01/21 11:46:59;;;;;;;10.82;4.63;;;3.60;99.90;;;;;;5044625;28;20038;-64
2024/01/21 11:49:25;;;;;;;10.32;6.45;;;3.60;99.90;;;;;;5015249;28;20065;-62
2024/01/21 11:51:52;;;;;;;10.40;5.53;;;3.70;99.90;;;;;;5046789;28;20112;-63
2024/01/21 11:54:19;;;;;;;8.93;4.93;;;3.70;99.90;;;;;;5040317;28;20049;-62
2024/01/21 11:56:45;;;;;;;14.95;5.53;;;3.70;99.90;;;;;;5029367;28;20117;-62
2024/01/21 11:59:12;;;;;;;10.68;5.65;;;3.70;99.90;;;;;;5029861;28;20073;-63
2024/01/21 12:01:38;;;;;;;9.38;5.47;;;3.60;99.90;;;;;;5037145;28;20103;-63
2024/01/21 12:04:07;;;;;;;9.43;5.25;;;3.70;99.90;;;;;;5031127;28;20128;-62
2024/01/21 12:06:35;;;;;;;10.50;5.50;;;3.70;99.90;;;;;;5044593;28;20077;-62
2024/01/21 12:09:02;;;;;;;10.45;5.93;;;3.60;99.90;;;;;;5051805;28;20483;-62
2024/01/21 12:11:35;;;;;;;10.70;6.45;;;3.60;99.90;;;;;;5047969;28;20060;-64
2024/01/21 12:14:01;;;;;;;11.27;5.80;;;3.70;99.90;;;;;;5049852;28;20056;-61
2024/01/21 12:16:27;;;;;;;10.23;4.93;;;3.60;99.90;;;;;;5047715;28;20128;-66
2024/01/21 12:18:54;;;;;;;10.35;5.18;;;3.70;99.90;;;;;;5031955;28;20078;-63
2024/01/21 12:21:20;;;;;;;16.08;8.25;;;3.60;99.90;;;;;;5048998;28;20055;-63
2024/01/21 12:23:47;;;;;;;12.27;6.70;;;3.60;99.90;;;;;;5049380;28;20037;-63
2024/01/21 12:26:17;;;;;;;13.40;8.60;;;3.60;99.90;;;;;;5048821;28;20051;-64
2024/01/21 12:29:04;;;;;;;10.35;6.28;;;3.60;99.90;;;;;;5042965;28;20108;-64
2024/01/21 12:31:31;;;;;;;11.77;7.10;;;3.60;99.90;;;;;;5049093;28;20056;-62
2024/01/21 12:34:03;;;;;;;9.73;5.82;;;3.60;99.90;;;;;;5047780;28;20060;-62
2024/01/21 12:36:49;;;;;;;10.75;6.05;;;3.60;99.90;;;;;;5049261;28;20060;-63
2024/01/21 12:39:16;;;;;;;9.82;5.68;;;3.60;99.90;;;;;;5046013;28;20064;-62
2024/01/21 12:41:42;;;;;;;11.55;5.93;;;3.60;99.90;;;;;;5048735;28;20044;-65
2024/01/21 12:44:08;;;;;;;11.32;5.93;;;3.60;99.90;;;;;;5046582;28;20041;-63
2024/01/21 12:46:34;;;;;;;9.32;5.38;;;3.60;99.90;;;;;;5049130;28;20041;-62
2024/01/21 12:49:00;;;;;;;12.20;5.80;;;3.60;99.90;;;;;;5049412;28;20049;-62
2024/01/21 12:51:28;;;;;;;11.73;5.78;;;3.60;99.90;;;;;;5049206;28;20051;-62
2024/01/21 12:53:53;;;;;;;14.75;6.28;;;3.60;99.90;;;;;;5045595;28;20136;-62